createdAt,value
2019-02-25T00:01:17.998Z,102295.27
2019-02-25T00:03:47.274Z,102289.61
2019-02-25T00:06:16.640Z,102280.93
2019-02-25T00:09:06.142Z,102280.67
2019-02-25T00:11:35.563Z,102283.05
2019-02-25T00:14:06.972Z,102275.84
2019-02-25T00:16:36.528Z,102273.40
2019-02-25T00:19:06.135Z,102279.64
2019-02-25T00:21:54.569Z,102270.12
2019-02-25T00:24:24.300Z,102269.38
2019-02-25T00:26:53.743Z,102261.42
2019-02-25T00:29:23.343Z,102256.81
2019-02-25T00:32:06.688Z,102259.78
2019-02-25T00:34:59.523Z,102260.61
2019-02-25T00:37:29.343Z,102253.36
2019-02-25T00:39:58.882Z,102256.95
2019-02-25T00:42:28.384Z,102261.66
2019-02-25T00:44:57.973Z,102259.39
2019-02-25T00:47:53.125Z,102267.69
2019-02-25T00:50:22.841Z,102261.45
2019-02-25T00:52:52.362Z,102261.45
2019-02-25T00:55:21.943Z,102261.92
2019-02-25T00:57:51.708Z,102263.35
2019-02-25T01:00:21.528Z,102261.77
2019-02-25T01:03:15.777Z,102269.70
2019-02-25T01:05:51.763Z,102261.88
2019-02-25T01:08:21.375Z,102258.95
2019-02-25T01:10:50.834Z,102263.40
2019-02-25T01:16:10.296Z,102264.70
2019-02-25T01:18:39.791Z,102276.70
2019-02-25T01:21:09.222Z,102280.19
2019-02-25T01:23:38.676Z,102281.14
2019-02-25T01:26:08.072Z,102279.92
2019-02-25T01:28:37.505Z,102269.55
2019-02-25T01:31:06.961Z,102260.41
2019-02-25T01:33:36.415Z,102252.34
2019-02-25T01:36:05.844Z,102270.98
2019-02-25T01:41:17.898Z,102259.34
2019-02-25T01:43:58.344Z,102270.30
2019-02-25T01:46:28.054Z,102269.08
2019-02-25T01:48:58.994Z,102262.20
2019-02-25T01:51:28.461Z,102261.83
2019-02-25T01:53:58.031Z,102251.48
2019-02-25T01:56:27.587Z,102258.78
2019-02-25T01:58:58.674Z,102255.87
2019-02-25T02:01:28.207Z,102250.08
2019-02-25T02:03:57.801Z,102246.05
2019-02-25T02:06:27.431Z,102246.05
2019-02-25T02:08:57.313Z,102238.29
2019-02-25T02:11:26.883Z,102238.29
2019-02-25T02:13:56.491Z,102243.30
2019-02-25T02:16:26.024Z,102247.00
2019-02-25T02:18:55.686Z,102237.95
2019-02-25T02:21:44.176Z,102222.27
2019-02-25T02:24:27.845Z,102222.27
2019-02-25T02:26:57.382Z,102225.28
2019-02-25T02:29:26.966Z,102212.85
2019-02-25T02:31:56.359Z,102205.27
2019-02-25T02:34:26.076Z,102218.23
2019-02-25T02:37:15.763Z,102222.67
2019-02-25T02:39:45.294Z,102215.22
2019-02-25T02:42:21.157Z,102213.42
2019-02-25T02:45:14.309Z,102210.48
2019-02-25T02:47:55.410Z,102210.48
2019-02-25T02:50:30.658Z,102219.92
2019-02-25T02:53:20.130Z,102220.97
2019-02-25T02:56:01.027Z,102220.97
2019-02-25T03:01:11.555Z,102209.91
2019-02-25T03:03:40.982Z,102220.37
2019-02-25T03:06:29.558Z,102213.09
2019-02-25T03:08:59.021Z,102213.09
2019-02-25T03:11:28.440Z,102199.77
2019-02-25T03:14:17.079Z,102215.52
2019-02-25T03:16:46.484Z,102215.52
2019-02-25T03:19:16.462Z,102227.11
2019-02-25T03:21:45.898Z,102215.42
2019-02-25T03:24:15.611Z,102217.50
2019-02-25T03:27:04.096Z,102233.84
2019-02-25T03:29:33.586Z,102233.84
2019-02-25T03:32:03.042Z,102238.07
2019-02-25T03:34:32.453Z,102229.77
2019-02-25T03:37:01.854Z,102218.27
2019-02-25T03:39:31.294Z,102212.52
2019-02-25T03:42:01.040Z,102212.52
2019-02-25T03:44:30.534Z,102203.55
2019-02-25T03:46:59.930Z,102200.16
2019-02-25T03:49:29.444Z,102197.81
2019-02-25T03:51:58.835Z,102212.04
2019-02-25T03:54:28.262Z,102223.17
2019-02-25T03:57:09.614Z,102211.79
2019-02-25T03:59:50.498Z,102227.16
2019-02-25T04:02:38.967Z,102227.16
2019-02-25T04:05:27.429Z,102234.08
2019-02-25T04:07:59.260Z,102234.08
2019-02-25T04:10:50.003Z,102249.27
2019-02-25T04:13:19.795Z,102235.98
2019-02-25T04:15:49.358Z,102235.98
2019-02-25T04:18:18.888Z,102243.61
2019-02-25T04:20:48.664Z,102229.57
2019-02-25T04:23:36.116Z,102241.82
2019-02-25T04:26:05.653Z,102234.75
2019-02-25T04:31:36.202Z,102254.36
2019-02-25T04:34:27.362Z,102261.19
2019-02-25T04:37:15.864Z,102261.19
2019-02-25T04:39:56.664Z,102252.64
2019-02-25T04:42:37.469Z,102237.92
2019-02-25T04:45:10.780Z,102237.92
2019-02-25T04:47:40.254Z,102224.98
2019-02-25T04:50:11.826Z,102233.33
2019-02-25T04:53:00.336Z,102227.17
2019-02-25T04:55:33.751Z,102227.17
2019-02-25T04:58:22.153Z,102220.20
2019-02-25T05:01:10.628Z,102241.64
2019-02-25T05:09:38.212Z,102247.17
2019-02-25T05:12:20.263Z,102247.17
2019-02-25T05:14:51.520Z,102245.09
2019-02-25T05:17:21.131Z,102247.30
2019-02-25T05:25:14.364Z,102262.28
2019-02-25T05:27:43.878Z,102269.84
2019-02-25T05:30:13.332Z,102259.64
2019-02-25T05:32:42.723Z,102256.52
2019-02-25T05:35:31.503Z,102256.99
2019-02-25T05:38:00.960Z,102260.37
2019-02-25T05:40:33.722Z,102264.81
2019-02-25T05:43:03.183Z,102275.29
2019-02-25T05:45:32.599Z,102276.61
2019-02-25T05:48:02.009Z,102280.10
2019-02-25T05:50:34.496Z,102269.63
2019-02-25T05:53:03.884Z,102260.86
2019-02-25T05:55:33.390Z,102259.53
2019-02-25T05:58:02.797Z,102265.30
2019-02-25T06:00:34.787Z,102259.16
2019-02-25T06:03:04.264Z,102246.42
2019-02-25T06:05:33.691Z,102243.30
2019-02-25T06:08:03.087Z,102230.19
2019-02-25T06:10:32.626Z,102235.27
2019-02-25T06:13:13.409Z,102245.95
2019-02-25T06:15:47.179Z,102266.98
2019-02-25T06:18:16.689Z,102266.52
2019-02-25T06:20:46.108Z,102275.39
2019-02-25T06:23:34.437Z,102271.70
2019-02-25T06:26:03.932Z,102278.30
2019-02-25T06:31:24.893Z,102290.06
2019-02-25T06:39:18.631Z,102278.17
2019-02-25T06:41:48.101Z,102264.61
2019-02-25T06:44:17.543Z,102256.08
2019-02-25T06:46:46.970Z,102261.26
2019-02-25T06:49:16.529Z,102239.05
2019-02-25T06:51:45.939Z,102237.63
2019-02-25T06:54:15.324Z,102219.19
2019-02-25T06:56:44.761Z,102212.91
2019-02-25T06:59:14.240Z,102223.28
2019-02-25T07:01:43.673Z,102225.82
2019-02-25T07:04:32.364Z,102222.12
2019-02-25T07:07:20.662Z,102216.25
2019-02-25T07:12:50.406Z,102242.86
2019-02-25T07:15:37.377Z,102256.31
2019-02-25T07:18:25.855Z,102253.83
2019-02-25T07:21:02.151Z,102257.11
2019-02-25T07:23:50.802Z,102251.72
2019-02-25T07:26:39.095Z,102251.47
2019-02-25T07:29:30.099Z,102257.50
2019-02-25T07:32:12.479Z,102258.72
2019-02-25T07:35:00.801Z,102255.02
2019-02-25T07:37:49.109Z,102245.07
2019-02-25T07:40:43.693Z,102245.67
2019-02-25T07:43:32.121Z,102247.20
2019-02-25T07:46:31.861Z,102250.23
2019-02-25T07:49:40.187Z,102243.08
2019-02-25T07:52:20.378Z,102221.22
2019-02-25T07:55:27.839Z,102216.08
2019-02-25T07:58:08.859Z,102216.08
2019-02-25T08:00:47.490Z,102207.44
2019-02-25T08:03:36.001Z,102200.02
2019-02-25T08:06:24.411Z,102188.47
2019-02-25T08:09:05.141Z,102182.47
2019-02-25T08:11:54.262Z,102197.42
2019-02-25T08:14:42.747Z,102208.64
2019-02-25T08:20:25.227Z,102214.53
2019-02-25T08:23:27.965Z,102244.07
2019-02-25T08:26:16.426Z,102243.00
2019-02-25T08:29:04.752Z,102263.52
2019-02-25T08:31:56.702Z,102253.63
2019-02-25T08:34:45.385Z,102269.78
2019-02-25T08:38:11.653Z,102269.78
2019-02-25T08:44:22.319Z,102279.34
2019-02-25T08:47:00.394Z,102267.17
2019-02-25T08:49:33.229Z,102261.27
2019-02-25T08:52:02.658Z,102260.46
2019-02-25T08:54:32.133Z,102246.70
2019-02-25T08:59:36.989Z,102213.53
2019-02-25T09:02:06.539Z,102217.73
2019-02-25T09:04:35.951Z,102220.88
2019-02-25T09:07:24.332Z,102233.91
2019-02-25T09:15:23.328Z,102172.72
2019-02-25T09:18:04.147Z,102166.47
2019-02-25T09:20:33.672Z,102202.30
2019-02-25T09:23:21.977Z,102224.50
2019-02-25T09:25:51.491Z,102223.53
2019-02-25T09:28:21.081Z,102229.57
2019-02-25T09:30:50.512Z,102222.20
2019-02-25T09:33:20.121Z,102210.14
2019-02-25T09:35:49.520Z,102194.95
2019-02-25T09:38:19.027Z,102194.91
2019-02-25T09:40:48.641Z,102171.14
2019-02-25T09:43:18.042Z,102175.56
2019-02-25T09:48:36.082Z,102174.84
2019-02-25T09:51:05.542Z,102172.55
2019-02-25T09:53:35.004Z,102172.91
2019-02-25T09:56:04.458Z,102163.62
2019-02-25T09:58:33.870Z,102156.63
2019-02-25T10:01:03.262Z,102156.14
2019-02-25T10:03:32.887Z,102147.45
2019-02-25T10:06:02.277Z,102161.56
2019-02-25T10:08:31.708Z,102164.22
2019-02-25T10:11:01.142Z,102174.07
2019-02-25T10:13:30.551Z,102187.09
2019-02-25T10:15:59.924Z,102189.98
2019-02-25T10:18:29.868Z,102192.14
2019-02-25T10:23:42.928Z,102177.22
2019-02-25T10:26:12.496Z,102170.46
2019-02-25T10:28:41.972Z,102164.94
2019-02-25T10:31:13.086Z,102161.09
2019-02-25T10:33:42.889Z,102164.38
2019-02-25T10:36:12.353Z,102159.33
2019-02-25T10:38:41.729Z,102175.03
2019-02-25T10:41:11.457Z,102170.16
2019-02-25T10:43:40.904Z,102179.41
2019-02-25T10:46:12.925Z,102191.83
2019-02-25T10:48:41.548Z,102208.12
2019-02-25T10:51:12.001Z,102211.17
2019-02-25T10:53:43.169Z,102202.95
2019-02-25T10:58:57.629Z,102188.52
2019-02-25T11:01:27.650Z,102180.60
2019-02-25T11:03:57.391Z,102189.69
2019-02-25T11:06:28.985Z,102174.92
2019-02-25T11:09:18.118Z,102167.62
2019-02-25T11:14:38.453Z,102159.55
2019-02-25T11:17:09.614Z,102145.27
2019-02-25T11:19:39.190Z,102139.05
2019-02-25T11:22:10.403Z,102142.06
2019-02-25T11:24:40.648Z,102139.94
2019-02-25T11:27:10.340Z,102139.27
2019-02-25T11:29:40.529Z,102130.58
2019-02-25T11:32:11.280Z,102124.44
2019-02-25T11:34:52.839Z,102108.98
2019-02-25T11:37:24.763Z,102107.75
2019-02-25T11:39:55.314Z,102110.05
2019-02-25T11:42:26.053Z,102116.44
2019-02-25T11:45:14.588Z,102105.70
2019-02-25T11:47:43.999Z,102099.12
2019-02-25T11:50:14.509Z,102105.55
2019-02-25T11:52:43.989Z,102086.34
2019-02-25T11:55:13.576Z,102080.30
2019-02-25T11:58:03.419Z,102076.58
2019-02-25T12:00:51.899Z,102081.63
2019-02-25T12:03:21.450Z,102079.11
2019-02-25T12:05:53.350Z,102081.81
2019-02-25T12:08:41.636Z,102096.75
2019-02-25T12:11:11.113Z,102098.34
2019-02-25T12:16:28.889Z,102067.67
2019-02-25T12:18:58.387Z,102069.01
2019-02-25T12:21:27.910Z,102080.66
2019-02-25T12:23:57.392Z,102059.81
2019-02-25T12:26:27.163Z,102054.87
2019-02-25T12:28:56.723Z,102061.00
2019-02-25T12:34:02.721Z,102038.28
2019-02-25T12:36:34.551Z,102032.59
2019-02-25T12:39:04.423Z,102032.56
2019-02-25T12:41:33.991Z,102027.95
2019-02-25T12:44:03.706Z,102027.13
2019-02-25T12:46:33.138Z,102009.00
2019-02-25T12:49:03.046Z,102009.09
2019-02-25T12:51:32.477Z,102002.20
2019-02-25T12:54:23.903Z,101995.16
2019-02-25T12:56:53.410Z,101988.55
2019-02-25T13:02:11.278Z,101976.31
2019-02-25T13:10:07.030Z,101980.30
2019-02-25T13:12:36.608Z,101982.48
2019-02-25T13:15:13.358Z,101984.16
2019-02-25T13:17:40.216Z,101990.48
2019-02-25T13:20:09.885Z,101985.44
2019-02-25T13:22:39.390Z,101987.22
2019-02-25T13:28:08.204Z,101977.38
2019-02-25T13:30:39.379Z,101982.87
2019-02-25T13:33:08.852Z,101990.63
2019-02-25T13:35:38.257Z,101989.30
2019-02-25T13:38:08.270Z,101998.73
2019-02-25T13:40:37.707Z,101994.16
2019-02-25T13:43:07.129Z,101989.41
2019-02-25T13:45:36.647Z,101995.59
2019-02-25T13:48:07.505Z,101996.36
2019-02-25T13:50:36.988Z,102004.45
2019-02-25T13:53:06.533Z,102005.64
2019-02-25T13:55:35.957Z,101990.41
2019-02-25T13:58:05.650Z,101993.34
2019-02-25T14:00:35.274Z,101984.45
2019-02-25T14:03:05.042Z,101957.34
2019-02-25T14:05:34.525Z,101971.02
2019-02-25T14:08:04.533Z,101985.39
2019-02-25T14:10:33.928Z,101976.80
2019-02-25T14:13:03.508Z,101980.36
2019-02-25T14:15:33.111Z,101988.78
2019-02-25T14:18:02.666Z,101991.34
2019-02-25T14:20:32.182Z,102003.83
2019-02-25T14:23:01.705Z,101988.08
2019-02-25T14:25:31.102Z,101982.61
2019-02-25T14:28:09.129Z,101994.91
2019-02-25T14:30:59.141Z,101990.20
2019-02-25T14:33:28.878Z,101986.49
2019-02-25T14:35:58.530Z,101974.39
2019-02-25T14:38:29.996Z,101986.23
2019-02-25T14:43:41.757Z,101975.23
2019-02-25T14:46:07.770Z,101975.59
2019-02-25T14:48:37.816Z,101972.08
2019-02-25T14:51:08.793Z,101968.13
2019-02-25T14:53:38.498Z,101975.91
2019-02-25T14:56:07.880Z,101986.77
2019-02-25T14:58:37.861Z,101969.81
2019-02-25T15:01:08.207Z,101970.86
2019-02-25T15:03:37.721Z,101969.95
2019-02-25T15:08:57.500Z,101968.97
2019-02-25T15:14:23.048Z,101980.26
2019-02-25T15:16:52.556Z,101978.78
2019-02-25T15:19:22.238Z,101993.13
2019-02-25T15:21:54.331Z,102002.30
2019-02-25T15:27:19.569Z,101986.26
2019-02-25T15:29:49.749Z,101961.48
2019-02-25T15:37:46.681Z,101957.30
2019-02-25T15:40:18.585Z,101964.53
2019-02-25T15:43:00.582Z,101960.77
2019-02-25T15:45:50.646Z,101961.55
2019-02-25T15:48:43.419Z,101952.25
2019-02-25T15:51:12.845Z,101959.60
2019-02-25T15:53:46.183Z,101956.61
2019-02-25T15:56:14.116Z,101958.48
2019-02-25T15:58:43.609Z,101962.09
2019-02-25T16:01:13.109Z,101965.30
2019-02-25T16:03:43.089Z,101958.95
2019-02-25T16:06:12.692Z,101955.23
2019-02-25T16:08:42.093Z,101960.47
2019-02-25T16:11:16.326Z,101970.67
2019-02-25T16:13:46.142Z,101980.29
2019-02-25T16:16:15.716Z,101980.97
2019-02-25T16:18:45.075Z,101987.92
2019-02-25T16:21:14.581Z,101972.58
2019-02-25T16:23:45.359Z,101965.93
2019-02-25T16:26:16.063Z,101951.66
2019-02-25T16:28:46.498Z,101959.63
2019-02-25T16:31:15.933Z,101951.00
2019-02-25T16:33:46.996Z,101959.33
2019-02-25T16:36:16.696Z,101958.22
2019-02-25T16:38:46.066Z,101955.64
2019-02-25T16:41:16.108Z,101960.34
2019-02-25T16:43:45.628Z,101955.55
2019-02-25T16:46:16.204Z,101949.83
2019-02-25T16:48:48.273Z,101939.53
2019-02-25T16:51:17.891Z,101939.18
2019-02-25T16:53:50.520Z,101936.66
2019-02-25T16:56:20.336Z,101923.36
2019-02-25T16:58:52.637Z,101923.14
2019-02-25T17:01:25.908Z,101922.12
2019-02-25T17:03:53.871Z,101906.16
2019-02-25T17:06:23.327Z,101902.16
2019-02-25T17:11:28.491Z,101888.91
2019-02-25T17:14:09.083Z,101891.08
2019-02-25T17:19:22.129Z,101889.33
2019-02-25T17:21:51.938Z,101890.25
2019-02-25T17:24:23.933Z,101918.54
2019-02-25T17:26:52.565Z,101934.83
2019-02-25T17:29:23.124Z,101930.56
2019-02-25T17:31:54.775Z,101915.22
2019-02-25T17:34:43.802Z,101904.09
2019-02-25T17:37:14.839Z,101897.78
2019-02-25T17:39:44.479Z,101887.35
2019-02-25T17:42:14.035Z,101887.56
2019-02-25T17:44:43.765Z,101866.66
2019-02-25T17:47:21.583Z,101850.41
2019-02-25T17:52:20.789Z,101844.53
2019-02-25T17:54:51.392Z,101850.73
2019-02-25T17:57:22.548Z,101854.92
2019-02-25T17:59:52.825Z,101845.26
2019-02-25T18:02:23.348Z,101832.44
2019-02-25T18:04:53.263Z,101815.14
2019-02-25T18:07:23.995Z,101804.48
2019-02-25T18:09:53.684Z,101802.31
2019-02-25T18:12:25.438Z,101814.96
2019-02-25T18:15:07.344Z,101828.34
2019-02-25T18:17:38.913Z,101825.76
2019-02-25T18:20:09.578Z,101817.04
2019-02-25T18:22:40.690Z,101812.48
2019-02-25T18:25:10.423Z,101813.96
2019-02-25T18:27:41.376Z,101827.41
2019-02-25T18:30:12.300Z,101827.72
2019-02-25T18:32:42.021Z,101827.23
2019-02-25T18:35:12.256Z,101823.37
2019-02-25T18:37:43.529Z,101838.50
2019-02-25T18:40:16.366Z,101837.31
2019-02-25T18:42:45.916Z,101843.61
2019-02-25T18:45:18.522Z,101842.56
2019-02-25T18:47:49.265Z,101834.36
2019-02-25T18:55:59.742Z,101805.97
2019-02-25T18:58:31.037Z,101807.92
2019-02-25T19:01:01.049Z,101815.52
2019-02-25T19:03:31.215Z,101808.44
2019-02-25T19:06:03.827Z,101812.70
2019-02-25T19:08:33.421Z,101819.77
2019-02-25T19:11:02.863Z,101817.69
2019-02-25T19:13:32.329Z,101816.91
2019-02-25T19:16:04.121Z,101815.17
2019-02-25T19:18:34.431Z,101821.74
2019-02-25T19:21:06.138Z,101830.30
2019-02-25T19:23:37.726Z,101841.69
2019-02-25T19:26:08.117Z,101843.91
2019-02-25T19:28:38.404Z,101832.57
2019-02-25T19:31:08.816Z,101836.02
2019-02-25T19:33:38.574Z,101826.50
2019-02-25T19:36:09.769Z,101819.50
2019-02-25T19:38:41.899Z,101808.78
2019-02-25T19:41:17.643Z,101818.09
2019-02-25T19:44:01.618Z,101815.02
2019-02-25T19:46:30.079Z,101810.88
2019-02-25T19:48:59.628Z,101815.34
2019-02-25T19:51:38.115Z,101807.05
2019-02-25T19:54:09.831Z,101806.83
2019-02-25T19:56:39.017Z,101810.73
2019-02-25T19:59:08.728Z,101814.02
2019-02-25T20:01:39.392Z,101824.64
2019-02-25T20:07:02.260Z,101822.95
2019-02-25T20:09:32.277Z,101821.62
2019-02-25T20:12:01.983Z,101825.97
2019-02-25T20:14:31.907Z,101831.14
2019-02-25T20:17:02.670Z,101819.77
2019-02-25T20:19:33.750Z,101826.76
2019-02-25T20:22:03.145Z,101817.68
2019-02-25T20:24:35.123Z,101805.56
2019-02-25T20:27:06.719Z,101815.56
2019-02-25T20:29:36.551Z,101811.09
2019-02-25T20:32:07.228Z,101806.62
2019-02-25T20:34:36.714Z,101802.14
2019-02-25T20:37:06.088Z,101805.29
2019-02-25T20:39:35.904Z,101821.36
2019-02-25T20:45:11.696Z,101823.18
2019-02-25T20:47:41.083Z,101825.48
2019-02-25T20:50:14.741Z,101815.52
2019-02-25T20:52:44.679Z,101817.46
2019-02-25T20:57:50.583Z,101826.89
2019-02-25T21:00:20.379Z,101814.36
2019-02-25T21:02:50.093Z,101809.53
2019-02-25T21:05:22.149Z,101811.00
2019-02-25T21:07:52.816Z,101810.30
2019-02-25T21:10:23.163Z,101813.25
2019-02-25T21:13:05.670Z,101817.72
2019-02-25T21:15:36.378Z,101807.58
2019-02-25T21:18:28.830Z,101805.19
2019-02-25T21:20:59.939Z,101795.41
2019-02-25T21:23:29.444Z,101803.86
2019-02-25T21:26:04.296Z,101789.39
2019-02-25T21:28:33.714Z,101803.64
2019-02-25T21:31:07.132Z,101811.61
2019-02-25T21:33:34.416Z,101811.12
2019-02-25T21:36:03.811Z,101824.54
2019-02-25T21:38:33.250Z,101822.37
2019-02-25T21:41:02.653Z,101821.30
2019-02-25T21:43:32.058Z,101829.76
2019-02-25T21:46:01.794Z,101836.53
2019-02-25T21:48:32.297Z,101829.05
2019-02-25T21:51:04.749Z,101821.56
2019-02-25T21:53:33.684Z,101833.52
2019-02-25T21:56:04.859Z,101836.17
2019-02-25T21:58:34.271Z,101840.42
2019-02-25T22:01:03.677Z,101836.44
2019-02-25T22:03:36.948Z,101846.58
2019-02-25T22:06:04.938Z,101849.72
2019-02-25T22:08:36.263Z,101848.03
2019-02-25T22:11:12.196Z,101856.36
2019-02-25T22:13:49.176Z,101863.00
2019-02-25T22:16:21.859Z,101859.98
2019-02-25T22:18:54.196Z,101865.42
2019-02-25T22:21:23.659Z,101857.72
2019-02-25T22:23:56.152Z,101853.32
2019-02-25T22:26:28.459Z,101859.34
2019-02-25T22:28:57.968Z,101858.02
2019-02-25T22:31:27.405Z,101862.19
2019-02-25T22:33:59.782Z,101867.86
2019-02-25T22:36:29.261Z,101877.02
2019-02-25T22:39:01.879Z,101870.73
2019-02-25T22:41:50.939Z,101873.39
2019-02-25T22:44:22.048Z,101872.91
2019-02-25T22:46:56.423Z,101874.10
2019-02-25T22:49:24.624Z,101884.23
2019-02-25T22:51:58.103Z,101890.26
2019-02-25T22:57:02.225Z,101889.06
2019-02-25T22:59:34.988Z,101877.73
2019-02-25T23:02:02.916Z,101879.80
2019-02-25T23:04:32.350Z,101880.45
2019-02-25T23:07:01.783Z,101878.13
2019-02-25T23:09:52.130Z,101877.80
2019-02-25T23:12:22.377Z,101879.61
2019-02-25T23:15:00.976Z,101877.44
2019-02-25T23:17:33.073Z,101879.12
2019-02-25T23:20:02.772Z,101877.92
2019-02-25T23:22:34.500Z,101896.03
2019-02-25T23:25:03.982Z,101892.40
2019-02-25T23:27:34.496Z,101888.06
2019-02-25T23:32:47.485Z,101897.48
2019-02-25T23:35:18.381Z,101904.25
2019-02-25T23:37:49.617Z,101905.09
2019-02-25T23:40:19.415Z,101904.61
2019-02-25T23:43:09.568Z,101908.59
2019-02-25T23:46:02.181Z,101901.24
2019-02-25T23:48:33.726Z,101909.69
2019-02-25T23:51:02.556Z,101904.02
2019-02-25T23:53:32.933Z,101900.88
2019-02-25T23:56:03.163Z,101905.22
2019-02-25T23:58:32.575Z,101900.27
